Time;durP1;ratioP1;P1;durP2;ratioP2;P2;SDS_P1;SDS_P2;PMS_P1;PMS_P2;Temp;Humidity;BMP_temperature;BMP_pressure;BME280_temperature;BME280_humidity;BME280_pressure;Samples;Min_cycle;Max_cycle;Signal;HPM_P1;HPM_P2
2023/07/29 00:00:43;;;;;;;4.80;4.40;;;24.30;99.90;;;;;;5064816;28;20409;-75
2023/07/29 00:03:09;;;;;;;6.07;4.70;;;24.30;99.90;;;;;;5063687;28;20451;-83
2023/07/29 00:05:35;;;;;;;5.90;4.10;;;24.20;99.90;;;;;;5064700;28;20617;-83
2023/07/29 00:08:00;;;;;;;6.50;4.67;;;24.20;99.90;;;;;;5063467;28;20778;-83
2023/07/29 00:10:27;;;;;;;4.73;4.33;;;24.20;99.90;;;;;;5067015;28;20560;-81
2023/07/29 00:12:52;;;;;;;7.20;4.43;;;24.20;99.90;;;;;;5068479;28;20676;-75
2023/07/29 00:15:18;;;;;;;3.80;3.40;;;24.20;99.90;;;;;;5068479;28;20413;-75
2023/07/29 00:17:44;;;;;;;5.13;4.13;;;24.10;99.90;;;;;;5067060;28;20200;-83
2023/07/29 00:20:10;;;;;;;4.60;4.20;;;24.20;99.90;;;;;;5068336;28;20642;-81
2023/07/29 00:22:35;;;;;;;4.80;4.30;;;24.10;99.90;;;;;;5068012;28;20214;-84
2023/07/29 00:25:01;;;;;;;7.63;4.37;;;24.10;99.90;;;;;;5068258;28;20472;-83
2023/07/29 00:27:26;;;;;;;5.30;4.20;;;24.10;99.90;;;;;;5068247;28;20197;-83
2023/07/29 00:29:52;;;;;;;5.93;4.43;;;24.10;99.90;;;;;;5067079;28;20242;-75
2023/07/29 00:32:18;;;;;;;7.13;4.20;;;24.10;99.90;;;;;;5083733;28;20214;-75
2023/07/29 00:34:44;;;;;;;4.53;3.83;;;24.10;99.90;;;;;;5068239;28;20250;-83
2023/07/29 00:37:10;;;;;;;4.43;4.03;;;24.00;99.90;;;;;;5066831;28;20198;-83
2023/07/29 00:39:37;;;;;;;6.33;4.13;;;24.00;99.90;;;;;;5067706;28;20225;-76
2023/07/29 00:42:03;;;;;;;4.77;4.07;;;24.00;99.90;;;;;;5066205;28;20499;-75
2023/07/29 00:44:29;;;;;;;6.43;4.30;;;24.00;99.90;;;;;;5066444;28;20498;-83
2023/07/29 00:46:55;;;;;;;4.03;3.63;;;24.00;99.90;;;;;;5067728;28;20442;-83
2023/07/29 00:49:21;;;;;;;5.13;4.63;;;23.90;99.90;;;;;;5067512;28;20194;-75
2023/07/29 00:51:47;;;;;;;4.57;4.17;;;23.80;99.90;;;;;;5066074;28;20502;-75
2023/07/29 00:54:13;;;;;;;4.90;4.40;;;23.80;99.90;;;;;;5066441;28;20441;-82
2023/07/29 00:56:40;;;;;;;4.80;4.30;;;23.80;99.90;;;;;;5067849;28;20476;-75
2023/07/29 00:59:06;;;;;;;6.10;4.60;;;23.80;99.90;;;;;;5066239;28;20528;-75
2023/07/29 01:01:32;;;;;;;8.00;4.50;;;23.80;99.90;;;;;;5082801;28;20423;-75
2023/07/29 01:03:58;;;;;;;4.20;3.90;;;23.90;99.90;;;;;;5066470;28;20194;-75
2023/07/29 01:07:13;;;;;;;7.50;4.50;;;23.80;99.90;;;;;;5067633;28;20547;-76
2023/07/29 01:10:01;;;;;;;4.83;4.33;;;23.80;99.90;;;;;;5067361;28;20447;-75
2023/07/29 01:12:36;;;;;;;5.47;4.97;;;23.80;99.90;;;;;;5067480;28;20583;-76
2023/07/29 01:15:11;;;;;;;6.73;4.80;;;23.70;99.90;;;;;;5066255;28;20501;-83
2023/07/29 01:17:42;;;;;;;6.03;4.97;;;23.70;99.90;;;;;;5067842;28;20464;-78
2023/07/29 01:20:11;;;;;;;4.90;4.50;;;23.70;99.90;;;;;;5066790;28;20407;-83
2023/07/29 01:22:37;;;;;;;9.30;5.57;;;23.70;99.90;;;;;;5067152;28;20837;-75
2023/07/29 01:25:04;;;;;;;5.00;4.37;;;23.60;99.90;;;;;;5067267;28;20458;-83
2023/07/29 01:27:30;;;;;;;5.07;4.67;;;23.60;99.90;;;;;;5067167;28;20453;-75
2023/07/29 01:29:57;;;;;;;5.80;4.70;;;23.60;99.90;;;;;;5065793;28;20411;-75
2023/07/29 01:32:33;;;;;;;5.80;5.30;;;23.50;99.90;;;;;;5065668;28;20503;-75
2023/07/29 01:35:28;;;;;;;5.23;4.53;;;23.50;99.90;;;;;;5065539;28;20603;-83
2023/07/29 01:38:00;;;;;;;6.77;4.70;;;23.50;99.90;;;;;;5064418;28;21129;-83
2023/07/29 01:40:28;;;;;;;4.83;4.37;;;23.40;99.90;;;;;;5066269;28;20807;-83
2023/07/29 01:42:54;;;;;;;6.33;4.70;;;23.40;99.90;;;;;;5066840;28;20496;-83
2023/07/29 01:45:24;;;;;;;5.43;4.83;;;23.40;99.90;;;;;;5065247;28;20993;-83
2023/07/29 01:47:50;;;;;;;5.00;4.43;;;23.30;99.90;;;;;;5065282;28;20458;-75
2023/07/29 01:50:15;;;;;;;5.77;4.67;;;23.30;99.90;;;;;;5066116;28;20809;-75
2023/07/29 01:52:41;;;;;;;6.87;4.80;;;23.20;99.90;;;;;;5081456;28;20227;-75
2023/07/29 01:55:07;;;;;;;8.33;4.80;;;23.30;99.90;;;;;;5066476;28;20176;-82
2023/07/29 01:57:33;;;;;;;5.73;4.60;;;23.20;99.90;;;;;;5065001;28;20208;-75
2023/07/29 01:59:59;;;;;;;6.10;4.67;;;23.30;99.90;;;;;;5064932;28;20979;-75
2023/07/29 02:02:24;;;;;;;5.00;4.60;;;23.20;99.90;;;;;;5066684;28;20528;-75
2023/07/29 02:04:51;;;;;;;10.70;4.33;;;23.20;99.90;;;;;;5066371;28;20873;-76
2023/07/29 02:07:19;;;;;;;6.83;5.17;;;23.10;99.90;;;;;;5066728;28;20290;-83
2023/07/29 02:09:44;;;;;;;5.40;4.90;;;23.10;99.90;;;;;;5064716;28;20413;-83
2023/07/29 02:12:10;;;;;;;5.57;5.07;;;23.10;99.90;;;;;;5066739;28;20434;-75
2023/07/29 02:14:36;;;;;;;5.47;4.80;;;23.10;99.90;;;;;;5064756;28;20181;-82
2023/07/29 02:17:01;;;;;;;5.40;4.70;;;23.20;99.90;;;;;;5066337;28;20475;-81
2023/07/29 02:19:27;;;;;;;6.30;4.60;;;23.20;99.90;;;;;;5081938;28;20226;-75
2023/07/29 02:21:53;;;;;;;4.47;4.07;;;23.20;99.90;;;;;;5065691;28;20204;-75
2023/07/29 02:24:19;;;;;;;5.77;4.97;;;23.10;99.90;;;;;;5064668;28;20291;-82
2023/07/29 02:26:44;;;;;;;8.40;5.60;;;23.10;99.90;;;;;;5066086;28;20200;-75
2023/07/29 02:29:10;;;;;;;5.23;4.33;;;23.10;99.90;;;;;;5066282;28;20645;-75
2023/07/29 02:31:37;;;;;;;5.43;4.93;;;23.10;99.90;;;;;;5065665;28;20759;-83
2023/07/29 02:34:03;;;;;;;4.90;4.50;;;23.10;99.90;;;;;;5064259;28;20652;-75
2023/07/29 02:36:29;;;;;;;5.73;5.20;;;23.10;99.90;;;;;;5065786;28;20556;-75
2023/07/29 02:38:54;;;;;;;7.20;5.00;;;23.10;99.90;;;;;;5064253;28;20528;-75
2023/07/29 02:41:20;;;;;;;5.30;4.80;;;23.10;99.90;;;;;;5065815;28;20165;-79
2023/07/29 02:43:50;;;;;;;5.37;4.87;;;23.10;99.90;;;;;;5080993;28;20218;-83
2023/07/29 02:46:16;;;;;;;6.63;5.37;;;23.10;99.90;;;;;;5064519;28;20239;-75
2023/07/29 02:48:42;;;;;;;5.00;4.60;;;23.10;99.90;;;;;;5065514;28;20759;-80
2023/07/29 02:51:08;;;;;;;5.57;5.07;;;23.00;99.90;;;;;;5063082;28;20730;-75
2023/07/29 02:53:36;;;;;;;5.57;4.80;;;23.10;99.90;;;;;;5064113;28;20431;-75
2023/07/29 02:56:06;;;;;;;5.90;5.40;;;23.00;99.90;;;;;;5064115;28;20186;-83
2023/07/29 02:58:31;;;;;;;4.63;4.13;;;23.00;99.90;;;;;;5065337;28;21048;-75
2023/07/29 03:01:02;;;;;;;4.77;4.37;;;23.00;99.90;;;;;;5063766;28;20446;-82
2023/07/29 03:03:28;;;;;;;7.63;5.27;;;23.00;99.90;;;;;;5064317;28;20305;-83
2023/07/29 03:06:02;;;;;;;6.13;5.60;;;23.00;99.90;;;;;;5080563;28;20490;-82
2023/07/29 03:08:27;;;;;;;5.60;5.20;;;23.00;99.90;;;;;;5064226;28;20572;-83
2023/07/29 03:10:54;;;;;;;5.87;5.27;;;23.00;99.90;;;;;;5065169;28;20413;-82
2023/07/29 03:13:19;;;;;;;6.00;5.40;;;23.00;99.90;;;;;;5065960;28;20707;-75
2023/07/29 03:15:45;;;;;;;6.23;5.63;;;23.00;99.90;;;;;;5063735;28;20414;-75
2023/07/29 03:18:11;;;;;;;5.47;4.73;;;23.00;99.90;;;;;;5065657;28;20205;-75
2023/07/29 03:20:36;;;;;;;5.20;4.70;;;22.90;99.90;;;;;;5065037;28;20272;-79
2023/07/29 03:23:02;;;;;;;5.37;4.97;;;22.90;99.90;;;;;;5063806;28;20208;-83
2023/07/29 03:25:28;;;;;;;6.33;5.50;;;23.00;99.90;;;;;;5063859;28;20262;-83
2023/07/29 03:27:54;;;;;;;5.40;4.83;;;23.00;99.90;;;;;;5065470;28;20454;-83
2023/07/29 03:30:21;;;;;;;6.20;5.60;;;23.00;99.90;;;;;;5063771;28;20771;-82
2023/07/29 03:32:49;;;;;;;6.00;5.13;;;22.90;99.90;;;;;;5065240;28;20437;-83
2023/07/29 03:35:16;;;;;;;12.13;5.20;;;22.90;99.90;;;;;;5065159;28;20505;-75
2023/07/29 03:37:42;;;;;;;8.20;5.30;;;22.90;99.90;;;;;;5064920;28;20446;-83
2023/07/29 03:40:11;;;;;;;5.83;5.33;;;22.80;99.90;;;;;;5064771;28;20666;-75
2023/07/29 03:42:37;;;;;;;5.17;4.63;;;22.80;99.90;;;;;;5064690;28;20579;-75
2023/07/29 03:45:03;;;;;;;5.43;4.93;;;22.80;99.90;;;;;;5068436;28;21012;-75
2023/07/29 03:47:29;;;;;;;6.30;5.30;;;22.80;99.90;;;;;;5067780;28;20487;-75
2023/07/29 03:49:54;;;;;;;5.33;4.83;;;22.80;99.90;;;;;;5067723;28;20548;-79
2023/07/29 03:52:20;;;;;;;5.37;4.77;;;22.80;99.90;;;;;;5069033;28;20197;-75
2023/07/29 03:54:46;;;;;;;5.23;4.73;;;22.90;99.90;;;;;;5066707;28;20328;-78
2023/07/29 03:57:11;;;;;;;6.07;5.07;;;22.90;99.90;;;;;;5069046;28;20209;-82
2023/07/29 03:59:37;;;;;;;6.00;5.40;;;22.90;99.90;;;;;;5068635;28;20213;-83
2023/07/29 04:02:03;;;;;;;6.93;5.03;;;22.90;99.90;;;;;;5067274;28;20899;-83
2023/07/29 04:04:29;;;;;;;6.27;5.27;;;23.00;99.90;;;;;;5068873;28;20278;-82
2023/07/29 04:06:54;;;;;;;6.67;5.97;;;23.10;99.90;;;;;;5068382;28;20441;-75
2023/07/29 04:09:20;;;;;;;5.97;5.00;;;23.10;99.90;;;;;;5067350;28;20213;-82
2023/07/29 04:11:46;;;;;;;6.17;5.57;;;23.20;99.90;;;;;;5067216;28;20193;-83
2023/07/29 04:14:11;;;;;;;6.00;5.40;;;23.20;99.90;;;;;;5067143;28;20188;-81
2023/07/29 04:16:37;;;;;;;7.50;5.57;;;23.20;99.90;;;;;;5084049;28;20570;-75
2023/07/29 04:19:03;;;;;;;9.73;6.33;;;23.20;99.90;;;;;;5068011;28;20177;-75
2023/07/29 04:21:29;;;;;;;7.77;5.67;;;23.20;99.90;;;;;;5067434;28;20179;-75
2023/07/29 04:23:55;;;;;;;5.90;5.30;;;23.20;99.90;;;;;;5065853;28;20173;-83
2023/07/29 04:26:20;;;;;;;10.47;5.33;;;23.10;99.90;;;;;;5067251;28;20535;-75
2023/07/29 04:28:46;;;;;;;5.73;5.23;;;23.10;99.90;;;;;;5066887;28;20220;-75
2023/07/29 04:31:11;;;;;;;7.93;5.70;;;23.10;99.90;;;;;;5068460;28;20184;-77
2023/07/29 04:33:37;;;;;;;6.90;5.20;;;23.10;99.90;;;;;;5068619;28;20198;-82
2023/07/29 04:36:03;;;;;;;6.97;6.17;;;23.20;99.90;;;;;;5068141;28;20184;-75
2023/07/29 04:38:34;;;;;;;6.80;5.60;;;23.20;99.90;;;;;;5068168;28;20197;-75
2023/07/29 04:41:03;;;;;;;6.20;5.60;;;23.30;99.90;;;;;;5065710;28;20162;-83
2023/07/29 04:43:31;;;;;;;11.37;5.63;;;23.30;99.90;;;;;;5064540;28;20476;-75
2023/07/29 04:45:57;;;;;;;7.27;5.47;;;23.40;99.90;;;;;;5066049;28;20553;-83
2023/07/29 04:48:23;;;;;;;5.60;4.83;;;23.40;99.90;;;;;;5065113;28;20545;-75
2023/07/29 04:50:48;;;;;;;8.43;5.50;;;23.50;99.90;;;;;;5064566;28;20295;-83
2023/07/29 04:53:14;;;;;;;6.27;4.73;;;23.50;99.90;;;;;;5066418;28;20200;-83
2023/07/29 04:55:43;;;;;;;5.97;5.43;;;23.60;99.90;;;;;;5066502;28;20175;-79
2023/07/29 04:58:08;;;;;;;6.37;5.50;;;23.60;99.90;;;;;;5066914;28;20244;-75
2023/07/29 05:00:34;;;;;;;6.07;5.47;;;23.70;99.90;;;;;;5066358;28;20948;-83
2023/07/29 05:03:01;;;;;;;5.80;5.20;;;23.70;99.90;;;;;;5067790;28;20193;-75
2023/07/29 05:05:26;;;;;;;7.70;5.47;;;23.70;99.90;;;;;;5067986;28;20708;-76
2023/07/29 05:07:52;;;;;;;7.57;5.23;;;23.80;99.90;;;;;;5067441;28;20443;-75
2023/07/29 05:10:18;;;;;;;8.40;5.87;;;23.80;99.90;;;;;;5066396;28;20189;-75
2023/07/29 05:12:43;;;;;;;10.33;5.57;;;23.90;99.90;;;;;;5066310;28;20213;-76
2023/07/29 05:15:10;;;;;;;6.83;5.70;;;23.90;99.90;;;;;;5067395;28;20419;-80
2023/07/29 05:17:35;;;;;;;8.27;5.63;;;24.00;99.90;;;;;;5067499;28;20264;-83
2023/07/29 05:20:01;;;;;;;5.80;4.97;;;24.10;99.90;;;;;;5065973;28;20516;-81
2023/07/29 05:22:26;;;;;;;6.00;5.40;;;24.10;99.90;;;;;;5067034;28;20436;-84
2023/07/29 05:24:52;;;;;;;8.03;5.20;;;24.20;99.90;;;;;;5067125;28;20213;-79
2023/07/29 05:27:18;;;;;;;8.93;5.60;;;24.30;99.90;;;;;;5065922;28;20434;-83
2023/07/29 05:29:43;;;;;;;6.27;4.87;;;24.30;99.90;;;;;;5067372;28;20631;-75
2023/07/29 05:32:09;;;;;;;8.50;5.80;;;24.40;99.90;;;;;;5065795;28;20206;-84
2023/07/29 05:34:35;;;;;;;6.70;5.40;;;24.50;99.90;;;;;;5065535;28;20304;-81
2023/07/29 05:37:00;;;;;;;6.57;4.60;;;24.60;99.90;;;;;;5065301;28;20435;-83
2023/07/29 05:39:26;;;;;;;9.00;4.63;;;24.60;99.90;;;;;;5065500;28;20184;-82
2023/07/29 05:41:51;;;;;;;5.27;4.77;;;24.70;99.90;;;;;;5066631;28;20200;-83
2023/07/29 05:44:17;;;;;;;5.80;5.20;;;24.80;99.90;;;;;;5064568;28;20203;-82
2023/07/29 05:46:43;;;;;;;5.30;4.80;;;24.90;99.90;;;;;;5066799;28;20176;-83
2023/07/29 05:49:08;;;;;;;9.40;4.90;;;24.90;99.90;;;;;;5067306;28;20204;-84
2023/07/29 05:51:34;;;;;;;5.20;4.40;;;24.90;99.90;;;;;;5064629;28;20260;-80
2023/07/29 05:54:00;;;;;;;4.70;4.10;;;25.00;99.90;;;;;;5066509;28;20226;-76
2023/07/29 05:56:25;;;;;;;10.63;4.60;;;25.10;99.90;;;;;;5065958;28;20183;-75
2023/07/29 05:58:51;;;;;;;5.13;4.07;;;25.20;99.90;;;;;;5071310;28;20740;-75
2023/07/29 06:01:16;;;;;;;6.70;5.00;;;25.20;99.90;;;;;;5083115;28;20381;-81
2023/07/29 06:03:42;;;;;;;10.00;4.17;;;25.30;99.90;;;;;;5084616;28;20227;-76
2023/07/29 06:06:08;;;;;;;5.97;4.27;;;25.40;99.90;;;;;;5084119;28;20265;-82
2023/07/29 06:08:34;;;;;;;7.47;4.33;;;25.50;99.90;;;;;;5083457;28;20668;-75
2023/07/29 06:11:00;;;;;;;4.20;3.83;;;25.50;99.90;;;;;;5082337;28;20508;-81
2023/07/29 06:13:26;;;;;;;4.73;4.17;;;25.60;99.90;;;;;;5084247;28;20269;-76
2023/07/29 06:15:51;;;;;;;5.40;3.80;;;25.70;99.90;;;;;;5083476;28;20980;-83
2023/07/29 06:18:17;;;;;;;5.50;3.93;;;25.80;99.90;;;;;;5082890;28;20231;-75
2023/07/29 06:20:43;;;;;;;4.73;4.23;;;25.90;99.90;;;;;;5080163;28;20169;-84
2023/07/29 06:23:08;;;;;;;4.93;3.30;;;25.90;99.90;;;;;;5083383;28;20203;-75
2023/07/29 06:25:34;;;;;;;7.10;4.03;;;26.00;99.90;;;;;;5082962;28;20567;-76
2023/07/29 06:28:00;;;;;;;5.30;3.85;;;26.10;99.90;;;;;;5084048;28;20279;-84
2023/07/29 06:30:25;;;;;;;8.10;3.60;;;26.20;99.90;;;;;;5083287;28;20172;-76
2023/07/29 06:32:51;;;;;;;4.43;4.03;;;26.20;99.90;;;;;;5086132;28;20227;-76
2023/07/29 06:35:17;;;;;;;3.43;3.13;;;26.40;99.90;;;;;;5085834;28;20173;-76
2023/07/29 06:37:42;;;;;;;4.20;3.80;;;26.40;99.90;;;;;;5086596;28;20267;-76
2023/07/29 06:40:08;;;;;;;6.30;4.10;;;26.50;99.90;;;;;;5085719;28;20464;-77
2023/07/29 06:42:34;;;;;;;4.43;3.50;;;26.50;99.90;;;;;;5084721;28;20196;-83
2023/07/29 06:45:00;;;;;;;3.93;3.40;;;26.60;99.90;;;;;;5085496;28;20456;-83
2023/07/29 06:47:25;;;;;;;4.30;3.80;;;26.70;99.90;;;;;;5084858;28;20196;-83
2023/07/29 06:49:51;;;;;;;6.40;4.07;;;26.70;99.90;;;;;;5083670;28;20172;-76
2023/07/29 06:52:16;;;;;;;3.93;3.27;;;26.80;99.90;;;;;;5084456;28;20200;-75
2023/07/29 06:54:42;;;;;;;4.10;3.67;;;26.90;99.90;;;;;;5084011;28;20168;-76
2023/07/29 06:57:08;;;;;;;7.33;3.93;;;27.00;99.90;;;;;;5084182;28;20180;-76
2023/07/29 06:59:33;;;;;;;5.17;4.10;;;27.10;99.90;;;;;;5083293;28;20695;-84
2023/07/29 07:02:00;;;;;;;4.83;3.93;;;27.10;99.90;;;;;;5084240;28;20248;-76
2023/07/29 07:04:25;;;;;;;4.43;4.13;;;27.20;99.90;;;;;;5082932;28;20233;-76
2023/07/29 07:06:51;;;;;;;4.20;3.80;;;27.20;99.90;;;;;;5084248;28;20967;-85
2023/07/29 07:09:16;;;;;;;3.83;3.53;;;27.30;99.90;;;;;;5083790;28;20177;-76
2023/07/29 07:11:42;;;;;;;4.17;3.40;;;27.40;99.90;;;;;;5082823;28;20450;-84
2023/07/29 07:14:08;;;;;;;4.03;3.70;;;27.50;99.90;;;;;;5082318;28;20178;-76
2023/07/29 07:16:36;;;;;;;4.27;3.80;;;27.50;99.90;;;;;;5082811;28;20188;-84
2023/07/29 07:19:02;;;;;;;6.00;3.77;;;27.60;99.90;;;;;;5083376;28;20183;-75
2023/07/29 07:21:27;;;;;;;3.80;3.50;;;27.70;99.90;;;;;;5083039;28;20814;-85
2023/07/29 07:23:53;;;;;;;3.80;3.50;;;27.80;99.90;;;;;;5085577;28;20181;-84
2023/07/29 07:26:19;;;;;;;6.63;3.87;;;27.80;99.90;;;;;;5084325;28;20212;-79
2023/07/29 07:28:45;;;;;;;5.30;3.47;;;27.90;99.90;;;;;;5084239;28;20798;-76
2023/07/29 07:31:10;;;;;;;4.70;3.70;;;27.90;99.90;;;;;;5085625;28;20168;-76
2023/07/29 07:33:36;;;;;;;4.30;3.47;;;28.00;99.90;;;;;;5085705;28;20209;-76
2023/07/29 07:36:01;;;;;;;4.63;3.37;;;28.00;99.90;;;;;;5083908;28;20238;-83
2023/07/29 07:38:27;;;;;;;5.73;4.27;;;28.10;99.90;;;;;;5084255;28;20209;-76
2023/07/29 07:40:55;;;;;;;9.33;4.20;;;28.10;99.90;;;;;;5084089;28;20474;-80
2023/07/29 07:43:20;;;;;;;8.20;4.10;;;28.10;99.90;;;;;;5085601;28;20724;-85
2023/07/29 07:45:46;;;;;;;5.40;4.30;;;28.10;99.90;;;;;;5085263;28;20450;-85
2023/07/29 07:48:13;;;;;;;4.50;4.10;;;28.20;99.90;;;;;;5084203;28;20215;-80
2023/07/29 07:50:39;;;;;;;4.13;3.73;;;28.20;99.90;;;;;;5083976;28;20182;-84
2023/07/29 07:53:04;;;;;;;6.33;3.73;;;28.30;99.90;;;;;;5084021;28;20436;-84
2023/07/29 07:55:30;;;;;;;4.43;3.83;;;28.30;99.90;;;;;;5083718;28;20772;-83
2023/07/29 07:57:55;;;;;;;5.53;3.40;;;28.40;99.90;;;;;;5079195;28;20198;-75
2023/07/29 08:00:21;;;;;;;4.40;3.30;;;28.40;99.90;;;;;;5072959;28;20182;-76
2023/07/29 08:02:47;;;;;;;4.43;4.03;;;28.40;99.90;;;;;;5084104;28;20206;-84
2023/07/29 08:05:13;;;;;;;6.77;3.70;;;28.50;99.90;;;;;;5083065;28;20222;-84
2023/07/29 08:07:38;;;;;;;4.30;3.90;;;28.50;99.90;;;;;;5083744;28;20653;-84
2023/07/29 08:10:04;;;;;;;4.03;3.23;;;28.60;99.90;;;;;;5082018;28;20386;-84
2023/07/29 08:12:30;;;;;;;3.93;3.17;;;28.70;99.90;;;;;;5082262;28;20225;-85
2023/07/29 08:14:56;;;;;;;6.60;3.53;;;28.80;99.90;;;;;;5081697;28;20419;-77
2023/07/29 08:17:21;;;;;;;5.30;3.20;;;28.80;99.90;;;;;;5083500;28;20190;-85
2023/07/29 08:19:47;;;;;;;5.57;3.57;;;28.80;99.90;;;;;;5081568;28;20179;-83
2023/07/29 08:22:12;;;;;;;5.43;3.83;;;28.80;99.90;;;;;;5081627;28;20198;-84
2023/07/29 08:24:38;;;;;;;4.33;3.90;;;28.90;99.90;;;;;;5083108;28;20242;-82
2023/07/29 08:27:04;;;;;;;4.90;3.30;;;29.00;99.90;;;;;;5081913;28;20555;-85
2023/07/29 08:29:30;;;;;;;5.03;3.40;;;29.00;99.90;;;;;;5081839;28;20433;-84
2023/07/29 08:31:55;;;;;;;6.23;2.87;;;29.10;99.90;;;;;;5086895;28;20420;-84
2023/07/29 08:34:21;;;;;;;8.40;3.63;;;29.20;99.90;;;;;;5087517;28;20248;-85
2023/07/29 08:36:46;;;;;;;4.83;4.00;;;29.30;99.90;;;;;;5085856;28;20687;-76
2023/07/29 08:39:13;;;;;;;4.67;4.17;;;29.30;99.90;;;;;;5088694;28;20176;-76
2023/07/29 08:42:01;;;;;;;4.90;3.50;;;29.40;99.90;;;;;;5106741;27;20635;-76
2023/07/29 08:44:34;;;;;;;3.13;2.83;;;29.50;99.90;;;;;;5073179;28;20507;-85
2023/07/29 08:47:00;;;;;;;4.17;3.00;;;29.60;99.90;;;;;;5066544;28;20551;-84
2023/07/29 08:49:28;;;;;;;4.73;3.13;;;29.60;99.80;;;;;;5068218;28;20735;-85
2023/07/29 08:51:54;;;;;;;9.43;3.47;;;29.70;99.80;;;;;;5082990;28;20461;-84
2023/07/29 08:54:20;;;;;;;3.23;2.93;;;29.70;99.80;;;;;;5083472;28;21003;-76
2023/07/29 08:56:46;;;;;;;6.03;3.37;;;29.70;99.20;;;;;;5084549;28;20522;-76
2023/07/29 08:59:13;;;;;;;4.30;3.17;;;29.80;99.50;;;;;;5082558;28;20365;-84
2023/07/29 09:01:39;;;;;;;3.33;3.03;;;29.90;98.70;;;;;;5085159;28;20415;-79
2023/07/29 09:04:05;;;;;;;3.63;3.10;;;30.00;98.80;;;;;;5082040;28;20806;-85
2023/07/29 09:06:31;;;;;;;3.73;3.23;;;30.10;99.10;;;;;;5081116;28;20224;-85
2023/07/29 09:08:58;;;;;;;3.57;3.23;;;30.10;98.60;;;;;;5085754;28;20550;-85
2023/07/29 09:11:25;;;;;;;3.90;3.00;;;30.20;97.50;;;;;;5083212;28;20434;-85
2023/07/29 09:13:51;;;;;;;10.33;3.90;;;30.30;97.40;;;;;;5083018;28;20480;-85
2023/07/29 09:16:16;;;;;;;5.20;2.93;;;30.30;96.50;;;;;;5083131;28;20408;-84
2023/07/29 09:18:42;;;;;;;3.40;2.80;;;30.30;97.00;;;;;;5084903;28;20612;-76
2023/07/29 09:21:08;;;;;;;4.53;2.97;;;30.40;96.60;;;;;;5084152;28;20951;-85
2023/07/29 09:23:44;;;;;;;3.10;2.73;;;30.50;96.80;;;;;;5083522;28;20195;-85
2023/07/29 09:26:10;;;;;;;3.90;3.27;;;30.60;96.60;;;;;;5087603;28;20464;-84
2023/07/29 09:28:38;;;;;;;5.67;3.60;;;30.60;96.60;;;;;;5085975;28;20789;-85
2023/07/29 09:31:04;;;;;;;4.00;2.67;;;30.60;96.70;;;;;;5084250;28;20435;-75
2023/07/29 09:33:36;;;;;;;4.70;3.60;;;30.60;96.20;;;;;;5084493;28;21174;-75
2023/07/29 09:36:11;;;;;;;4.20;2.97;;;30.60;95.90;;;;;;5084404;28;20413;-85
2023/07/29 09:38:37;;;;;;;3.50;3.20;;;30.60;96.20;;;;;;5085804;28;20439;-83
2023/07/29 09:41:03;;;;;;;4.83;3.30;;;30.60;96.30;;;;;;5083656;28;20539;-84
2023/07/29 09:43:33;;;;;;;3.70;2.80;;;30.70;96.50;;;;;;5086861;28;21001;-84
2023/07/29 09:46:08;;;;;;;3.40;3.10;;;30.80;96.90;;;;;;5085250;28;20268;-83
2023/07/29 09:48:35;;;;;;;3.70;3.40;;;30.90;96.40;;;;;;5087263;28;20428;-85
2023/07/29 09:51:11;;;;;;;3.13;2.77;;;31.00;96.40;;;;;;5087227;28;20413;-76
2023/07/29 09:53:43;;;;;;;3.17;2.87;;;31.10;95.90;;;;;;5085637;28;20445;-84
2023/07/29 09:56:09;;;;;;;4.20;3.00;;;31.20;95.60;;;;;;5085332;28;20928;-85
2023/07/29 09:58:37;;;;;;;4.83;3.30;;;31.20;95.60;;;;;;5086865;28;20468;-84
2023/07/29 10:01:04;;;;;;;3.87;3.00;;;31.20;95.60;;;;;;5086836;28;20402;-84
2023/07/29 10:03:31;;;;;;;4.63;3.70;;;31.10;95.00;;;;;;5086100;28;20576;-84
2023/07/29 10:06:02;;;;;;;3.50;3.20;;;31.00;95.30;;;;;;5084793;28;21035;-76
2023/07/29 10:08:35;;;;;;;4.70;3.17;;;31.10;95.50;;;;;;5085633;28;20440;-85
2023/07/29 10:11:08;;;;;;;3.93;3.63;;;31.10;95.40;;;;;;5086717;28;20781;-75
2023/07/29 10:13:34;;;;;;;3.83;3.47;;;31.10;95.00;;;;;;5085106;28;20876;-76
2023/07/29 10:16:04;;;;;;;4.10;3.57;;;31.20;95.70;;;;;;5084859;28;20421;-76
2023/07/29 10:18:31;;;;;;;5.00;3.73;;;31.30;95.40;;;;;;5086852;28;20440;-85
2023/07/29 10:20:58;;;;;;;3.03;2.80;;;31.30;94.50;;;;;;5086579;28;20430;-76
2023/07/29 10:23:26;;;;;;;3.53;3.00;;;31.20;94.70;;;;;;5084445;28;20989;-84
2023/07/29 10:26:01;;;;;;;6.83;3.37;;;31.20;94.70;;;;;;5086040;28;20979;-75
2023/07/29 10:28:30;;;;;;;6.93;4.40;;;31.20;95.00;;;;;;5086468;28;20609;-79
2023/07/29 10:30:58;;;;;;;3.53;3.03;;;31.20;94.40;;;;;;5086236;28;20435;-76
2023/07/29 10:33:23;;;;;;;7.93;3.90;;;31.20;94.80;;;;;;5086621;28;20444;-85
2023/07/29 10:35:49;;;;;;;3.83;2.80;;;31.20;95.10;;;;;;5086118;28;20446;-84
2023/07/29 10:38:16;;;;;;;4.40;3.80;;;31.20;94.60;;;;;;5086589;28;20449;-75
2023/07/29 10:40:56;;;;;;;4.60;3.90;;;31.20;94.90;;;;;;5086164;28;20413;-84
2023/07/29 10:43:40;;;;;;;3.57;3.27;;;31.20;94.50;;;;;;5086639;28;20436;-81
2023/07/29 10:46:19;;;;;;;5.13;3.90;;;31.30;94.70;;;;;;5084307;28;20464;-76
2023/07/29 10:48:53;;;;;;;5.93;3.90;;;31.40;94.30;;;;;;5086201;28;20471;-84
2023/07/29 10:51:35;;;;;;;4.00;3.70;;;31.50;94.70;;;;;;5086315;28;20397;-75
2023/07/29 10:54:12;;;;;;;3.80;3.50;;;31.50;94.60;;;;;;5085584;28;20421;-84
2023/07/29 10:56:42;;;;;;;4.40;3.63;;;31.60;94.20;;;;;;5086345;28;20397;-76
2023/07/29 10:59:17;;;;;;;3.23;2.97;;;31.80;94.20;;;;;;5084204;28;21049;-76
2023/07/29 11:01:57;;;;;;;5.83;4.00;;;31.80;94.00;;;;;;5085914;28;20423;-84
2023/07/29 11:04:28;;;;;;;3.83;3.53;;;31.80;94.30;;;;;;5083377;28;20421;-76
2023/07/29 11:07:06;;;;;;;4.63;3.50;;;31.90;93.40;;;;;;5085407;28;20432;-76
2023/07/29 11:09:42;;;;;;;4.90;3.73;;;31.90;93.60;;;;;;5085786;28;20488;-84
2023/07/29 11:12:34;;;;;;;4.00;3.60;;;31.80;93.60;;;;;;5084401;28;20421;-84
2023/07/29 11:15:13;;;;;;;4.03;3.60;;;31.80;93.50;;;;;;5083851;28;20433;-83
2023/07/29 11:17:40;;;;;;;3.83;3.40;;;31.60;93.60;;;;;;5084348;28;20449;-84
2023/07/29 11:20:07;;;;;;;3.60;3.30;;;31.50;93.70;;;;;;5083783;28;20421;-84
2023/07/29 11:22:34;;;;;;;3.97;3.50;;;31.40;94.00;;;;;;5083856;28;20725;-85
2023/07/29 11:24:59;;;;;;;3.70;3.40;;;31.40;94.10;;;;;;5085181;28;20981;-84
2023/07/29 11:27:25;;;;;;;4.10;3.80;;;31.50;93.70;;;;;;5084304;28;20445;-76
2023/07/29 11:30:06;;;;;;;6.40;3.60;;;31.60;93.60;;;;;;5085186;28;20203;-75
2023/07/29 11:32:33;;;;;;;3.60;3.30;;;31.50;93.10;;;;;;5085832;28;20184;-76
2023/07/29 11:35:07;;;;;;;4.63;3.00;;;31.50;93.20;;;;;;5083740;28;20938;-84
2023/07/29 11:37:34;;;;;;;6.47;3.50;;;31.40;93.20;;;;;;5084127;28;20441;-76
2023/07/29 11:40:00;;;;;;;6.00;4.10;;;31.40;93.40;;;;;;5085012;28;20405;-84
2023/07/29 11:42:27;;;;;;;3.70;3.40;;;31.40;93.90;;;;;;5085744;28;20452;-76
2023/07/29 11:44:55;;;;;;;6.77;3.77;;;31.40;93.10;;;;;;5085052;28;21034;-76
2023/07/29 11:47:21;;;;;;;4.00;3.33;;;31.50;93.20;;;;;;5085556;28;20184;-76
2023/07/29 11:49:47;;;;;;;3.50;3.20;;;31.50;93.20;;;;;;5083599;28;20424;-76
2023/07/29 11:52:13;;;;;;;3.20;3.00;;;31.60;93.30;;;;;;5084166;28;20281;-75
2023/07/29 11:54:39;;;;;;;3.37;3.07;;;31.70;93.60;;;;;;5084884;28;20949;-83
2023/07/29 11:57:09;;;;;;;4.40;4.00;;;31.80;93.30;;;;;;5085596;28;20201;-85
2023/07/29 11:59:37;;;;;;;4.53;3.30;;;31.80;92.70;;;;;;5084959;28;20534;-75
2023/07/29 12:02:09;;;;;;;3.87;3.20;;;31.90;92.80;;;;;;5085225;28;20454;-76
2023/07/29 12:04:36;;;;;;;4.57;3.37;;;32.00;92.70;;;;;;5086147;28;20492;-84
2023/07/29 12:07:02;;;;;;;3.90;3.50;;;32.00;92.10;;;;;;5086846;28;21029;-85
2023/07/29 12:09:28;;;;;;;4.17;3.77;;;32.00;92.00;;;;;;5087242;28;20474;-75
2023/07/29 12:11:54;;;;;;;6.07;3.80;;;32.10;92.10;;;;;;5088897;28;20497;-85
2023/07/29 12:14:20;;;;;;;6.00;3.93;;;32.10;92.10;;;;;;5086936;28;20917;-76
2023/07/29 12:16:48;;;;;;;6.10;3.43;;;32.20;92.20;;;;;;5081529;28;20764;-85
2023/07/29 12:19:15;;;;;;;4.80;4.17;;;32.20;92.00;;;;;;5080915;28;20216;-76
2023/07/29 12:21:44;;;;;;;4.10;3.80;;;32.20;92.00;;;;;;5084434;28;20424;-75
2023/07/29 12:24:13;;;;;;;4.23;3.70;;;32.20;91.90;;;;;;5087922;28;20421;-76
2023/07/29 12:26:38;;;;;;;4.90;4.43;;;32.20;91.70;;;;;;5088970;28;20556;-76
2023/07/29 12:29:22;;;;;;;4.60;4.20;;;32.20;91.00;;;;;;5088858;28;20835;-85
2023/07/29 12:31:48;;;;;;;4.33;3.93;;;32.30;91.50;;;;;;5087604;28;20526;-75
2023/07/29 12:34:21;;;;;;;4.10;3.70;;;32.30;90.70;;;;;;5088214;28;20413;-83
2023/07/29 12:36:49;;;;;;;7.33;4.23;;;32.40;90.20;;;;;;5088724;28;20502;-85
2023/07/29 12:39:21;;;;;;;3.70;3.40;;;32.40;90.50;;;;;;5088462;28;20409;-76
2023/07/29 12:41:52;;;;;;;4.97;3.67;;;32.40;90.60;;;;;;5088583;28;20630;-76
2023/07/29 12:44:18;;;;;;;4.87;4.47;;;32.30;90.20;;;;;;5088265;28;20405;-84
2023/07/29 12:46:44;;;;;;;4.00;3.60;;;32.10;90.90;;;;;;5088557;28;20827;-84